createdAt,value
2022-12-28T00:01:44.439Z,77931.03
2022-12-28T00:04:15.594Z,77910.75
2022-12-28T00:06:43.252Z,77918.88
2022-12-28T00:09:13.170Z,77910.75
2022-12-28T00:11:40.593Z,77922.94
2022-12-28T00:14:08.561Z,77924.97
2022-12-28T00:16:38.438Z,77931.03
2022-12-28T00:19:10.388Z,77926.97
2022-12-28T00:21:37.859Z,77926.97
2022-12-28T00:24:05.527Z,77924.97
2022-12-28T00:26:34.591Z,77924.97
2022-12-28T00:29:05.145Z,77935.09
2022-12-28T00:31:34.210Z,77935.09
2022-12-28T00:34:02.697Z,77933.06
2022-12-28T00:37:09.377Z,77931.03
2022-12-28T00:39:19.096Z,77935.09
2022-12-28T00:41:47.005Z,77935.09
2022-12-28T00:44:14.250Z,77939.16
2022-12-28T00:46:41.591Z,77943.22
2022-12-28T00:49:08.549Z,77947.25
2022-12-28T00:51:35.816Z,77943.22
2022-12-28T00:54:02.766Z,77939.16
2022-12-28T00:56:30.039Z,77943.22
2022-12-28T00:58:59.176Z,77951.31
2022-12-28T01:01:28.097Z,77955.38
2022-12-28T01:03:59.016Z,77955.38
2022-12-28T01:06:27.462Z,77963.50
2022-12-28T01:08:55.028Z,77965.50
2022-12-28T01:11:27.572Z,77967.53
2022-12-28T01:13:57.269Z,77969.56
2022-12-28T01:16:30.415Z,77971.59
2022-12-28T01:18:59.606Z,77979.72
2022-12-28T01:21:30.827Z,77987.81
2022-12-28T01:24:00.575Z,77995.94
2022-12-28T01:26:28.892Z,77991.88
2022-12-28T01:28:57.781Z,77975.66
2022-12-28T01:31:25.099Z,77975.66
2022-12-28T01:33:52.211Z,77967.53
2022-12-28T01:36:25.349Z,77971.59
2022-12-28T01:38:57.678Z,77971.59
2022-12-28T01:41:27.176Z,77963.50
2022-12-28T01:43:54.048Z,77957.41
2022-12-28T01:46:35.024Z,77973.63
2022-12-28T01:49:19.803Z,77975.66
2022-12-28T01:51:53.947Z,77975.66
2022-12-28T01:54:23.494Z,77975.66
2022-12-28T01:56:51.989Z,77971.59
2022-12-28T01:59:22.129Z,77979.72
2022-12-28T02:01:51.127Z,77983.75
2022-12-28T02:04:18.183Z,77973.63
2022-12-28T02:06:47.141Z,77983.75
2022-12-28T02:09:19.617Z,77987.81
2022-12-28T02:11:48.518Z,77987.81
2022-12-28T02:14:16.323Z,77987.81
2022-12-28T02:16:44.086Z,77983.75
2022-12-28T02:19:18.181Z,77987.81
2022-12-28T02:22:19.814Z,77979.72
2022-12-28T02:25:24.212Z,77991.88
2022-12-28T02:28:06.752Z,77989.84
2022-12-28T02:30:40.078Z,77995.94
2022-12-28T02:33:32.605Z,77995.94
2022-12-28T02:36:12.991Z,77991.88
2022-12-28T02:38:54.047Z,77991.88
2022-12-28T02:41:24.740Z,77995.94
2022-12-28T02:43:53.793Z,78004.03
2022-12-28T02:46:39.364Z,78020.28
2022-12-28T02:49:40.456Z,78026.34
2022-12-28T02:52:22.613Z,78040.56
2022-12-28T02:55:17.738Z,78050.69
2022-12-28T02:57:50.598Z,78062.84
2022-12-28T03:00:24.321Z,78077.06
2022-12-28T03:03:10.220Z,78085.16
2022-12-28T03:06:09.334Z,78099.34
2022-12-28T03:09:27.772Z,78105.44
2022-12-28T03:12:04.506Z,78121.66
2022-12-28T03:14:46.840Z,78117.63
2022-12-28T03:17:35.173Z,78117.63
2022-12-28T03:20:26.449Z,78125.72
2022-12-28T03:23:14.603Z,78137.91
2022-12-28T03:26:03.497Z,78137.91
2022-12-28T03:28:58.445Z,78141.94
2022-12-28T03:31:29.327Z,78154.13
2022-12-28T03:34:08.811Z,78154.13
2022-12-28T03:36:52.213Z,78166.28
2022-12-28T03:39:58.302Z,78166.28
2022-12-28T03:42:48.815Z,78164.25
2022-12-28T03:45:45.829Z,78160.19
2022-12-28T03:48:13.322Z,78174.41
2022-12-28T03:50:44.320Z,78158.16
2022-12-28T03:53:14.556Z,78166.28
2022-12-28T03:55:43.435Z,78170.34
2022-12-28T03:58:10.647Z,78162.22
2022-12-28T04:00:38.740Z,78170.34
2022-12-28T04:03:07.741Z,78170.34
2022-12-28T04:05:35.661Z,78170.34
2022-12-28T04:08:02.578Z,78166.28
2022-12-28T04:10:29.838Z,78178.44
2022-12-28T04:12:57.120Z,78186.56
2022-12-28T04:15:37.795Z,78194.69
2022-12-28T04:18:04.960Z,78198.72
2022-12-28T04:20:33.040Z,78200.75
2022-12-28T04:23:01.444Z,78210.91
2022-12-28T04:25:28.717Z,78219.00
2022-12-28T04:27:56.248Z,78223.06
2022-12-28T04:30:49.420Z,78233.22
2022-12-28T04:33:16.633Z,78233.22
2022-12-28T04:35:47.293Z,78235.25
2022-12-28T04:38:14.617Z,78241.31
2022-12-28T04:40:42.181Z,78241.31
2022-12-28T04:43:09.386Z,78247.41
2022-12-28T04:45:36.746Z,78255.53
2022-12-28T04:48:04.174Z,78259.56
2022-12-28T04:50:31.404Z,78267.69
2022-12-28T04:52:59.303Z,78275.81
2022-12-28T04:55:32.597Z,78267.69
2022-12-28T04:58:00.833Z,78267.69
2022-12-28T05:00:28.080Z,78267.69
2022-12-28T05:02:58.956Z,78267.69
2022-12-28T05:05:27.889Z,78273.78
2022-12-28T05:07:55.114Z,78279.84
2022-12-28T05:10:22.419Z,78287.97
2022-12-28T05:12:49.268Z,78279.84
2022-12-28T05:15:16.481Z,78279.84
2022-12-28T05:17:43.299Z,78283.91
2022-12-28T05:20:10.862Z,78287.97
2022-12-28T05:22:40.866Z,78287.97
2022-12-28T05:25:08.775Z,78296.09
2022-12-28T05:27:35.688Z,78296.09
2022-12-28T05:30:02.922Z,78292.03
2022-12-28T05:32:29.969Z,78300.13
2022-12-28T05:34:57.182Z,78308.25
2022-12-28T05:37:24.382Z,78306.22
2022-12-28T05:39:51.718Z,78308.25
2022-12-28T05:42:18.686Z,78308.25
2022-12-28T05:44:45.972Z,78308.25
2022-12-28T05:47:13.965Z,78308.25
2022-12-28T05:49:41.140Z,78308.25
2022-12-28T05:52:08.001Z,78304.19
2022-12-28T05:54:35.247Z,78304.19
2022-12-28T05:57:02.102Z,78308.25
2022-12-28T05:59:29.343Z,78304.19
2022-12-28T06:01:56.366Z,78304.19
2022-12-28T06:04:23.788Z,78304.19
2022-12-28T06:06:50.899Z,78308.25
2022-12-28T06:09:18.159Z,78312.31
2022-12-28T06:11:45.920Z,78316.34
2022-12-28T06:14:13.271Z,78314.34
2022-12-28T06:16:42.073Z,78316.34
2022-12-28T06:19:11.826Z,78316.34
2022-12-28T06:21:40.223Z,78320.41
2022-12-28T06:24:08.305Z,78320.41
2022-12-28T06:26:36.748Z,78324.47
2022-12-28T06:29:04.493Z,78320.41
2022-12-28T06:31:37.584Z,78322.44
2022-12-28T06:34:06.899Z,78312.31
2022-12-28T06:36:42.534Z,78302.16
2022-12-28T06:39:12.909Z,78308.25
2022-12-28T06:41:41.037Z,78296.09
2022-12-28T06:44:09.937Z,78300.13
2022-12-28T06:46:37.578Z,78296.09
2022-12-28T06:49:05.135Z,78296.09
2022-12-28T06:51:40.569Z,78285.94
2022-12-28T06:54:09.625Z,78283.91
2022-12-28T06:56:37.481Z,78283.91
2022-12-28T06:59:05.524Z,78279.84
2022-12-28T07:01:35.481Z,78279.84
2022-12-28T07:04:06.642Z,78287.97
2022-12-28T07:06:42.005Z,78271.75
2022-12-28T07:09:13.828Z,78267.69
2022-12-28T07:11:42.412Z,78267.69
2022-12-28T07:14:09.746Z,78263.63
2022-12-28T07:19:03.242Z,78255.53
2022-12-28T07:21:36.310Z,78243.34
2022-12-28T07:24:04.989Z,78235.25
2022-12-28T07:26:34.414Z,78231.19
2022-12-28T07:29:03.300Z,78227.13
2022-12-28T07:31:40.029Z,78227.13
2022-12-28T07:34:12.422Z,78212.94
2022-12-28T07:36:39.484Z,78202.78
2022-12-28T07:39:06.758Z,78194.69
2022-12-28T07:41:34.618Z,78182.50
2022-12-28T07:44:05.855Z,78178.44
2022-12-28T07:46:34.988Z,78174.41
2022-12-28T07:49:02.396Z,78166.28
2022-12-28T07:51:35.340Z,78170.34
2022-12-28T07:54:03.645Z,78162.22
2022-12-28T07:59:01.775Z,78150.06
2022-12-28T08:01:31.877Z,78146.00
2022-12-28T08:04:01.623Z,78146.00
2022-12-28T08:06:30.459Z,78146.00
2022-12-28T08:09:02.128Z,78139.91
2022-12-28T08:11:32.207Z,78141.94
2022-12-28T08:14:00.252Z,78137.91
2022-12-28T08:16:30.096Z,78119.63
2022-12-28T08:18:57.760Z,78113.56
2022-12-28T08:21:26.320Z,78109.50
2022-12-28T08:23:53.857Z,78105.44
2022-12-28T08:26:23.517Z,78097.34
2022-12-28T08:28:53.923Z,78093.28
2022-12-28T08:31:30.045Z,78081.09
2022-12-28T08:33:59.057Z,78081.09
2022-12-28T08:36:26.229Z,78077.06
2022-12-28T08:38:53.805Z,78077.06
2022-12-28T08:41:23.046Z,78068.94
2022-12-28T08:43:52.823Z,78060.81
2022-12-28T08:46:25.824Z,78032.44
2022-12-28T08:48:54.761Z,78022.28
2022-12-28T08:51:27.977Z,78002.00
2022-12-28T08:53:55.154Z,77979.72
2022-12-28T08:56:28.671Z,77953.34
2022-12-28T08:58:56.962Z,77935.09
2022-12-28T09:01:26.526Z,77918.88
2022-12-28T09:03:56.957Z,77902.66
2022-12-28T09:06:36.645Z,77882.38
2022-12-28T09:09:06.518Z,77870.22
2022-12-28T09:11:38.620Z,77853.97
2022-12-28T09:14:09.428Z,77845.88
2022-12-28T09:16:37.964Z,77837.75
2022-12-28T09:19:07.446Z,77829.66
2022-12-28T09:21:37.323Z,77813.44
2022-12-28T09:24:05.570Z,77797.19
2022-12-28T09:26:37.671Z,77780.97
2022-12-28T09:29:08.685Z,77776.94
2022-12-28T09:31:37.360Z,77766.78
2022-12-28T09:36:53.252Z,77740.44
2022-12-28T09:39:24.710Z,77734.34
2022-12-28T09:41:55.116Z,77732.31
2022-12-28T09:44:37.711Z,77718.13
2022-12-28T09:47:26.344Z,77712.03
2022-12-28T09:50:25.836Z,77716.09
2022-12-28T09:52:59.183Z,77716.09
2022-12-28T09:55:27.673Z,77699.88
2022-12-28T09:57:57.581Z,77687.69
2022-12-28T10:00:27.168Z,77671.47
2022-12-28T10:03:09.968Z,77655.25
2022-12-28T10:05:37.458Z,77647.16
2022-12-28T10:08:04.852Z,77622.81
2022-12-28T10:10:32.288Z,77616.72
2022-12-28T10:13:37.118Z,77606.59
2022-12-28T10:15:59.785Z,77610.66
2022-12-28T10:18:28.289Z,77596.44
2022-12-28T10:20:55.951Z,77590.38
2022-12-28T10:23:30.107Z,77590.38
2022-12-28T10:26:00.805Z,77582.25
2022-12-28T10:28:37.925Z,77582.25
2022-12-28T10:31:09.078Z,77574.16
2022-12-28T10:33:40.910Z,77590.38
2022-12-28T10:36:14.444Z,77561.97
2022-12-28T10:38:54.310Z,77553.88
2022-12-28T10:41:31.226Z,77555.91
2022-12-28T10:44:37.489Z,77549.81
2022-12-28T10:47:07.503Z,77533.59
2022-12-28T10:49:37.211Z,77527.50
2022-12-28T10:52:15.879Z,77525.47
2022-12-28T10:54:43.515Z,77521.44
2022-12-28T10:57:17.952Z,77529.53
2022-12-28T10:59:46.929Z,77533.59
2022-12-28T11:02:28.499Z,77525.47
2022-12-28T11:05:01.842Z,77523.47
2022-12-28T11:07:41.077Z,77521.44
2022-12-28T11:10:34.750Z,77515.34
2022-12-28T11:13:02.120Z,77513.31
2022-12-28T11:15:32.246Z,77509.25
2022-12-28T11:18:02.643Z,77509.25
2022-12-28T11:20:38.081Z,77517.38
2022-12-28T11:23:08.175Z,77505.22
2022-12-28T11:25:37.220Z,77507.25
2022-12-28T11:28:16.269Z,77501.16
2022-12-28T11:30:44.422Z,77497.09
2022-12-28T11:33:44.541Z,77491.03
2022-12-28T11:36:20.930Z,77480.88
2022-12-28T11:38:51.060Z,77491.03
2022-12-28T11:41:27.534Z,77495.06
2022-12-28T11:44:04.666Z,77482.91
2022-12-28T11:46:31.694Z,77476.81
2022-12-28T11:49:06.453Z,77476.81
2022-12-28T11:51:35.777Z,77472.78
2022-12-28T11:54:38.648Z,77472.78
2022-12-28T11:57:08.085Z,77466.69
2022-12-28T11:59:36.320Z,77468.72
2022-12-28T12:02:29.595Z,77468.72
2022-12-28T12:04:56.982Z,77462.63
2022-12-28T12:07:31.795Z,77448.44
2022-12-28T12:10:29.415Z,77446.41
2022-12-28T12:12:57.025Z,77444.38
2022-12-28T12:15:34.023Z,77432.22
2022-12-28T12:18:05.034Z,77430.19
2022-12-28T12:20:45.094Z,77424.09
2022-12-28T12:23:25.907Z,77416.00
2022-12-28T12:25:56.241Z,77409.91
2022-12-28T12:28:38.027Z,77399.78
2022-12-28T12:31:12.023Z,77395.72
2022-12-28T12:33:46.213Z,77399.78
2022-12-28T12:36:23.088Z,77395.72
2022-12-28T12:39:08.655Z,77420.06
2022-12-28T12:41:47.308Z,77416.00
2022-12-28T12:44:18.862Z,77422.06
2022-12-28T12:47:18.597Z,77428.16
2022-12-28T12:49:52.517Z,77438.31
2022-12-28T12:52:42.222Z,77424.09
2022-12-28T12:55:33.140Z,77424.09
2022-12-28T12:58:04.263Z,77420.06
2022-12-28T13:00:48.399Z,77411.94
2022-12-28T13:03:40.080Z,77416.00
2022-12-28T13:06:08.458Z,77424.09
2022-12-28T13:09:00.408Z,77420.06
2022-12-28T13:11:31.486Z,77407.88
2022-12-28T13:13:58.847Z,77413.97
2022-12-28T13:16:29.748Z,77416.00
2022-12-28T13:18:59.637Z,77407.88
2022-12-28T13:21:29.633Z,77399.78
2022-12-28T13:23:56.956Z,77379.50
2022-12-28T13:26:29.735Z,77391.66
2022-12-28T13:29:00.078Z,77393.69
2022-12-28T13:31:41.045Z,77387.59
2022-12-28T13:34:25.669Z,77387.59
2022-12-28T13:36:54.420Z,77381.53
2022-12-28T13:39:22.604Z,77391.66
2022-12-28T13:42:12.808Z,77377.47
2022-12-28T13:44:48.404Z,77387.59
2022-12-28T13:47:38.228Z,77389.63
2022-12-28T13:50:14.369Z,77387.59
2022-12-28T13:52:57.155Z,77389.63
2022-12-28T13:55:41.854Z,77387.59
2022-12-28T13:58:20.164Z,77387.59
2022-12-28T14:00:50.204Z,77383.56
2022-12-28T14:03:19.273Z,77387.59
2022-12-28T14:05:50.068Z,77395.72
2022-12-28T14:08:18.105Z,77387.59
2022-12-28T14:10:47.343Z,77395.72
2022-12-28T14:13:15.008Z,77403.84
2022-12-28T14:15:42.688Z,77403.84
2022-12-28T14:18:14.986Z,77407.88
2022-12-28T14:20:50.344Z,77411.94
2022-12-28T14:23:24.703Z,77416.00
2022-12-28T14:25:54.316Z,77416.00
2022-12-28T14:28:39.659Z,77413.97
2022-12-28T14:31:09.602Z,77407.88
2022-12-28T14:33:49.657Z,77403.84
2022-12-28T14:36:21.948Z,77395.72
2022-12-28T14:38:52.929Z,77391.66
2022-12-28T14:41:29.705Z,77391.66
2022-12-28T14:44:02.401Z,77383.56
2022-12-28T14:46:40.668Z,77383.56
2022-12-28T14:49:26.655Z,77383.56
2022-12-28T14:52:09.576Z,77387.59
2022-12-28T14:54:53.455Z,77375.44
2022-12-28T14:57:23.688Z,77379.50
2022-12-28T15:00:00.640Z,77373.41
2022-12-28T15:02:34.549Z,77359.22
2022-12-28T15:05:03.154Z,77355.16
2022-12-28T15:07:33.269Z,77359.22
2022-12-28T15:10:00.454Z,77355.16
2022-12-28T15:12:27.964Z,77355.16
2022-12-28T15:14:55.009Z,77357.19
2022-12-28T15:17:22.758Z,77347.06
2022-12-28T15:19:51.588Z,77347.06
2022-12-28T15:22:19.004Z,77351.13
2022-12-28T15:24:46.503Z,77347.06
2022-12-28T15:27:13.962Z,77338.94
2022-12-28T15:30:05.135Z,77334.91
2022-12-28T15:32:28.951Z,77338.94
2022-12-28T15:34:56.034Z,77332.88
2022-12-28T15:37:23.309Z,77338.94
2022-12-28T15:39:50.180Z,77332.88
2022-12-28T15:42:17.667Z,77343.00
2022-12-28T15:44:46.267Z,77340.97
2022-12-28T15:47:13.623Z,77351.13
2022-12-28T15:49:40.525Z,77343.00
2022-12-28T15:52:07.842Z,77355.16
2022-12-28T15:54:35.051Z,77351.13
2022-12-28T15:57:02.457Z,77347.06
2022-12-28T15:59:29.512Z,77338.94
2022-12-28T16:01:56.867Z,77330.84
2022-12-28T16:04:23.978Z,77326.78
2022-12-28T16:06:51.367Z,77322.72
2022-12-28T16:09:18.780Z,77322.72
2022-12-28T16:11:51.495Z,77318.66
2022-12-28T16:14:21.743Z,77314.63
2022-12-28T16:16:49.210Z,77310.56
2022-12-28T16:19:16.665Z,77308.53
2022-12-28T16:21:45.294Z,77302.44
2022-12-28T16:24:12.319Z,77306.50
2022-12-28T16:26:39.575Z,77300.44
2022-12-28T16:29:06.721Z,77302.44
2022-12-28T16:31:36.839Z,77294.34
2022-12-28T16:34:06.968Z,77306.50
2022-12-28T16:36:35.225Z,77302.44
2022-12-28T16:39:05.590Z,77298.41
2022-12-28T16:41:36.580Z,77290.28
2022-12-28T16:44:15.578Z,77286.22
2022-12-28T16:46:43.119Z,77294.34
2022-12-28T16:49:13.501Z,77286.22
2022-12-28T16:51:43.999Z,77290.28
2022-12-28T16:54:19.814Z,77280.16
2022-12-28T16:56:48.627Z,77286.22
2022-12-28T16:59:21.713Z,77278.13
2022-12-28T17:01:49.293Z,77290.28
2022-12-28T17:04:16.454Z,77284.22
2022-12-28T17:06:46.500Z,77278.13
2022-12-28T17:09:15.055Z,77270.00
2022-12-28T17:11:42.617Z,77270.00
2022-12-28T17:14:13.069Z,77292.31
2022-12-28T17:16:40.786Z,77265.97
2022-12-28T17:19:08.403Z,77257.84
2022-12-28T17:21:36.054Z,77255.81
2022-12-28T17:24:03.626Z,77261.91
2022-12-28T17:26:31.305Z,77253.78
2022-12-28T17:28:59.046Z,77243.66
2022-12-28T17:31:26.450Z,77257.84
2022-12-28T17:33:56.051Z,77249.75
2022-12-28T17:36:23.749Z,77237.56
2022-12-28T17:38:51.045Z,77241.63
2022-12-28T17:41:22.644Z,77231.50
2022-12-28T17:43:52.419Z,77239.59
2022-12-28T17:46:20.713Z,77237.56
2022-12-28T17:48:51.352Z,77237.56
2022-12-28T17:51:19.189Z,77217.28
2022-12-28T17:53:46.378Z,77209.19
2022-12-28T17:56:14.818Z,77213.25
2022-12-28T17:58:43.318Z,77221.34
2022-12-28T18:01:12.239Z,77201.06
2022-12-28T18:03:39.694Z,77213.25
2022-12-28T18:06:07.485Z,77201.06
2022-12-28T18:08:34.846Z,77205.13
2022-12-28T18:11:02.973Z,77209.19
2022-12-28T18:13:30.344Z,77209.19
2022-12-28T18:15:57.671Z,77205.13
2022-12-28T18:18:24.702Z,77197.03
2022-12-28T18:20:57.044Z,77217.28
2022-12-28T18:23:24.152Z,77199.06
2022-12-28T18:26:17.304Z,77188.91
2022-12-28T18:28:44.560Z,77192.97
2022-12-28T18:31:11.454Z,77197.03
2022-12-28T18:33:38.871Z,77188.91
2022-12-28T18:36:11.390Z,77192.97
2022-12-28T18:38:43.209Z,77188.91
2022-12-28T18:41:16.839Z,77192.97
2022-12-28T18:43:44.323Z,77180.81
2022-12-28T18:46:11.708Z,77168.63
2022-12-28T18:48:41.068Z,77176.75
2022-12-28T18:51:10.746Z,77172.69
2022-12-28T18:53:38.995Z,77168.63
2022-12-28T18:56:11.595Z,77172.69
2022-12-28T18:58:40.660Z,77164.59
2022-12-28T19:01:39.806Z,77168.63
2022-12-28T19:04:02.720Z,77164.59
2022-12-28T19:06:30.359Z,77158.50
2022-12-28T19:09:01.466Z,77160.53
2022-12-28T19:11:29.499Z,77148.38
2022-12-28T19:13:57.214Z,77160.53
2022-12-28T19:16:30.523Z,77164.59
2022-12-28T19:19:01.067Z,77156.47
2022-12-28T19:21:33.955Z,77152.41
2022-12-28T19:24:05.130Z,77140.25
2022-12-28T19:26:33.659Z,77138.22
2022-12-28T19:29:01.257Z,77136.19
2022-12-28T19:31:28.409Z,77136.19
2022-12-28T19:33:56.199Z,77136.19
2022-12-28T19:36:23.371Z,77124.03
2022-12-28T19:38:53.511Z,77124.03
2022-12-28T19:41:21.262Z,77111.88
2022-12-28T19:43:48.453Z,77105.78
2022-12-28T19:46:21.182Z,77099.72
2022-12-28T19:48:48.743Z,77101.72
2022-12-28T19:51:15.693Z,77099.72
2022-12-28T19:53:42.972Z,77099.72
2022-12-28T19:56:16.403Z,77091.59
2022-12-28T19:58:45.124Z,77095.66
2022-12-28T20:01:18.903Z,77079.44
2022-12-28T20:03:46.907Z,77087.53
2022-12-28T20:06:29.018Z,77095.66
2022-12-28T20:09:02.053Z,77091.59
2022-12-28T20:14:35.832Z,77071.31
2022-12-28T20:17:02.749Z,77079.44
2022-12-28T20:19:30.005Z,77079.44
2022-12-28T20:21:56.906Z,77083.50
2022-12-28T20:24:24.217Z,77087.53
2022-12-28T20:26:53.967Z,77095.66
2022-12-28T20:29:25.542Z,77099.72
2022-12-28T20:31:53.096Z,77097.69
2022-12-28T20:34:20.480Z,77103.75
2022-12-28T20:36:47.497Z,77089.56
2022-12-28T20:39:14.784Z,77083.50
2022-12-28T20:42:00.190Z,77095.66
2022-12-28T20:44:32.501Z,77103.75
2022-12-28T20:47:00.612Z,77111.88
2022-12-28T20:49:28.793Z,77109.84
2022-12-28T20:51:56.318Z,77111.88
2022-12-28T20:54:23.992Z,77099.72
2022-12-28T20:56:55.257Z,77103.75
2022-12-28T20:59:25.152Z,77085.50
2022-12-28T21:01:52.824Z,77095.66
2022-12-28T21:04:20.357Z,77095.66
2022-12-28T21:06:47.451Z,77087.53
2022-12-28T21:09:14.689Z,77083.50
2022-12-28T21:11:41.577Z,77087.53
2022-12-28T21:14:08.838Z,77093.63
2022-12-28T21:16:35.922Z,77075.38
2022-12-28T21:19:03.509Z,77075.38
2022-12-28T21:21:30.405Z,77075.38
2022-12-28T21:23:57.584Z,77075.38
2022-12-28T21:26:25.909Z,77069.28
2022-12-28T21:28:53.378Z,77059.16
2022-12-28T21:31:20.434Z,77061.19
2022-12-28T21:33:47.921Z,77059.16
2022-12-28T21:36:16.084Z,77063.22
2022-12-28T21:38:44.475Z,77055.09
2022-12-28T21:41:37.705Z,77034.84
2022-12-28T21:44:11.816Z,77038.88
2022-12-28T21:46:39.309Z,77042.94
2022-12-28T21:49:07.831Z,77038.88
2022-12-28T21:51:35.487Z,77036.84
2022-12-28T21:54:06.062Z,77047.00
2022-12-28T21:56:35.127Z,77042.94
2022-12-28T21:59:03.704Z,77042.94
2022-12-28T22:01:49.308Z,77038.88
2022-12-28T22:04:40.451Z,77038.88
2022-12-28T22:07:09.547Z,77042.94
2022-12-28T22:09:55.474Z,77042.94
2022-12-28T22:12:37.318Z,77040.91
2022-12-28T22:15:33.643Z,77038.88
2022-12-28T22:18:52.733Z,77034.84
2022-12-28T22:21:12.311Z,77034.84
2022-12-28T22:23:39.552Z,77034.84
2022-12-28T22:26:07.129Z,77036.84
2022-12-28T22:28:34.027Z,77028.75
2022-12-28T22:31:08.169Z,77030.78
2022-12-28T22:33:35.320Z,77034.84
2022-12-28T22:36:14.415Z,77034.84
2022-12-28T22:38:41.629Z,77032.81
2022-12-28T22:41:09.262Z,77044.97
2022-12-28T22:43:36.934Z,77038.88
2022-12-28T22:46:11.949Z,77026.72
2022-12-28T22:48:39.059Z,77018.63
2022-12-28T22:51:09.706Z,77022.66
2022-12-28T22:53:37.532Z,77018.63
2022-12-28T22:56:11.785Z,77010.50
2022-12-28T22:58:38.738Z,77014.56
2022-12-28T23:01:07.439Z,77022.66
2022-12-28T23:03:38.541Z,77018.63
2022-12-28T23:06:07.036Z,77018.63
2022-12-28T23:08:34.468Z,77010.50
2022-12-28T23:11:04.725Z,77014.56
2022-12-28T23:13:34.828Z,77008.47
2022-12-28T23:16:05.056Z,77006.44
2022-12-28T23:18:53.064Z,77006.44
2022-12-28T23:21:41.490Z,77006.44
2022-12-28T23:24:31.833Z,77006.44
2022-12-28T23:27:18.682Z,77010.50
2022-12-28T23:29:46.436Z,77014.56
2022-12-28T23:32:14.271Z,77014.56
2022-12-28T23:34:41.222Z,77006.44
2022-12-28T23:37:08.381Z,77014.56
2022-12-28T23:39:35.355Z,77010.50
2022-12-28T23:42:02.565Z,77006.44
2022-12-28T23:44:29.626Z,77008.47
2022-12-28T23:46:59.285Z,77010.50
2022-12-28T23:49:27.408Z,77002.41
2022-12-28T23:51:54.943Z,76998.34
2022-12-28T23:54:22.329Z,76990.22
2022-12-28T23:56:49.621Z,76992.25
2022-12-28T23:59:16.593Z,76998.34
